Lytton, Iowa
Current Conditions -  °F | °C
As of 4:55 PM on Friday 28 Nov 2014 (Local Time) from KSLB Reporting Station
Clear Clear  
Wind Chill: 23°   Ceiling: Unl
Heat Index: 30°   Visibility: 7mi
Dew Point: 28°   Wind: 8mph
Humidity: 93%   Direction: 120°ESE
Pressure: 29.71"   Gusts: NA
Location:  42.42°N, 94.86°W
Report Text: KSLB 282255Z AUTO 12007KT 7SM CLR M01/M02 A2971 RMK AO2
Loading
Personal Weather Stations






























Interactive Weather Map New forecast layout! Learn more

10-Day Weather Forecast

Advertisements
Track Severe Weather on mobile